Time;durP1;ratioP1;P1;durP2;ratioP2;P2;SDS_P1;SDS_P2;PMS_P1;PMS_P2;Temp;Humidity;BMP_temperature;BMP_pressure;BME280_temperature;BME280_humidity;BME280_pressure;Samples;Min_cycle;Max_cycle;Signal;HPM_P1;HPM_P2
2022/01/02 00:01:05;;;;;;;6.20;2.00;;;-4.40;24.90;;;-5.35;92.47;99706.63;4961638;28;130770;-69
2022/01/02 00:03:55;;;;;;;3.90;2.03;;;-4.50;25.40;;;-5.40;91.75;99719.66;4966527;28;130945;-69
2022/01/02 00:06:48;;;;;;;3.95;2.13;;;-4.50;25.30;;;-5.54;91.68;99722.25;4965106;28;120125;-69
2022/01/02 00:09:39;;;;;;;4.28;1.88;;;-4.40;23.00;;;-5.55;92.08;99706.59;4967018;28;119710;-71
2022/01/02 00:12:32;;;;;;;4.13;2.03;;;-4.40;22.80;;;-5.52;91.77;99716.78;4994357;28;130573;-70
2022/01/02 00:15:21;;;;;;;3.80;1.85;;;-4.50;22.50;;;-5.46;91.22;99714.13;4967274;28;130442;-69
2022/01/02 00:18:09;;;;;;;4.10;2.08;;;-4.50;23.00;;;-5.59;92.17;99706.19;4966447;28;120288;-69
2022/01/02 00:21:00;;;;;;;3.05;1.75;;;-4.50;23.80;;;-5.67;92.36;99704.53;4967483;28;120079;-69
2022/01/02 00:23:59;;;;;;;3.28;2.08;;;-4.50;23.10;;;-5.65;92.45;99717.56;4967552;28;131090;-69
2022/01/02 00:26:51;;;;;;;5.03;2.00;;;-4.60;24.20;;;-5.61;92.84;99729.34;4963176;28;131393;-69
2022/01/02 00:29:40;;;;;;;4.35;1.95;;;-4.60;26.60;;;-5.48;92.82;99724.09;4975770;28;120298;-69
2022/01/02 00:32:29;;;;;;;4.07;2.13;;;-4.70;27.00;;;-5.54;92.94;99716.97;4961310;28;120076;-69
2022/01/02 00:35:15;;;;;;;4.30;2.40;;;-4.70;29.80;;;-5.52;93.55;99717.56;4958523;28;130984;-70
2022/01/02 00:38:06;;;;;;;3.40;2.10;;;-4.80;31.90;;;-5.63;94.65;99716.34;4977481;28;130315;-70
2022/01/02 00:40:55;;;;;;;4.65;1.95;;;-4.80;36.00;;;-5.51;94.25;99719.22;4958776;28;122141;-70
2022/01/02 00:43:49;;;;;;;4.00;2.17;;;-4.90;35.80;;;-5.46;94.69;99721.25;4964001;28;121798;-70
2022/01/02 00:46:41;;;;;;;3.85;2.17;;;-5.00;41.30;;;-5.43;94.89;99720.84;4963085;28;130946;-70
2022/01/02 00:49:30;;;;;;;6.43;2.03;;;-5.00;43.60;;;-5.58;94.85;99731.59;4974066;28;130373;-70
2022/01/02 00:52:18;;;;;;;4.13;1.95;;;-5.00;46.70;;;-5.73;95.91;99725.66;4973323;28;122584;-70
2022/01/02 00:55:10;;;;;;;3.78;1.80;;;-5.00;45.70;;;-5.60;95.78;99720.41;4979449;28;122518;-70
2022/01/02 00:58:01;;;;;;;4.00;1.95;;;-5.00;44.80;;;-5.65;95.29;99725.50;4963598;28;130833;-69
2022/01/02 01:00:52;;;;;;;3.65;2.03;;;-5.10;46.50;;;-5.61;95.60;99718.78;4963129;28;131403;-70
2022/01/02 01:03:42;;;;;;;3.75;1.75;;;-5.10;44.70;;;-5.84;95.17;99719.94;4976025;28;119937;-70
2022/01/02 01:06:33;;;;;;;4.43;2.03;;;-5.00;42.20;;;-5.73;95.42;99718.56;4963069;28;120077;-70
2022/01/02 01:09:22;;;;;;;4.10;2.08;;;-5.00;39.20;;;-5.92;95.13;99714.00;4963402;28;131109;-70
2022/01/02 01:12:11;;;;;;;4.22;1.83;;;-5.00;37.60;;;-5.87;94.91;99724.81;4960295;28;130565;-70
2022/01/02 01:15:00;;;;;;;4.05;1.90;;;-5.10;36.50;;;-5.81;94.58;99719.56;4970710;28;120335;-70
2022/01/02 01:17:47;;;;;;;3.38;1.80;;;-5.10;36.50;;;-6.02;94.76;99727.63;4974341;28;120280;-69
2022/01/02 01:20:40;;;;;;;3.17;2.13;;;-5.20;36.80;;;-5.92;95.03;99717.50;4960090;28;130769;-70
2022/01/02 01:23:27;;;;;;;4.00;2.00;;;-5.20;38.20;;;-6.08;95.87;99723.94;4989395;28;130690;-70
2022/01/02 01:26:17;;;;;;;3.10;1.98;;;-5.20;38.50;;;-6.15;96.23;99717.84;4960749;28;120362;-70
2022/01/02 01:29:05;;;;;;;2.92;1.70;;;-5.10;35.60;;;-6.22;96.38;99717.78;4962009;28;120029;-70
2022/01/02 01:31:54;;;;;;;3.50;1.90;;;-5.10;33.70;;;-6.19;96.53;99727.97;4969265;28;130413;-70
2022/01/02 01:34:42;;;;;;;4.07;1.90;;;-5.10;35.00;;;-6.24;96.95;99733.03;4963336;28;130307;-70
2022/01/02 01:37:29;;;;;;;5.65;2.28;;;-5.10;36.60;;;-6.06;96.74;99752.81;4960299;28;120332;-70
2022/01/02 01:40:18;;;;;;;;;;;-5.10;37.10;;;-6.12;96.18;99748.31;4962151;28;119886;-70
2022/01/02 01:43:05;;;;;;;3.63;1.95;;;-5.10;36.40;;;-6.12;96.17;99753.59;4986443;28;131306;-70
2022/01/02 01:46:02;;;;;;;4.07;2.00;;;-5.10;38.80;;;-6.13;97.26;99736.13;4961835;28;130646;-70
2022/01/02 01:48:53;;;;;;;4.25;2.03;;;-5.20;39.40;;;-6.08;96.43;99746.91;4954575;28;122931;-70
2022/01/02 01:51:40;;;;;;;8.52;2.40;;;-5.30;41.90;;;-6.15;97.66;99755.63;4962556;28;122225;-71
2022/01/02 01:54:28;;;;;;;4.78;2.30;;;-5.30;45.20;;;-6.15;98.22;99766.19;4972574;28;130748;-71
2022/01/02 01:57:15;;;;;;;;;;;-5.30;45.60;;;-6.17;98.31;99757.66;4971512;28;130366;-70
2022/01/02 02:00:06;;;;;;;3.65;2.08;;;-5.40;48.40;;;-6.31;99.08;99761.22;4958096;28;120690;-70
2022/01/02 02:02:57;;;;;;;4.82;1.98;;;-5.40;51.20;;;-6.32;99.35;99756.97;4962886;28;119962;-70
2022/01/02 02:05:45;;;;;;;4.25;2.30;;;-5.50;55.10;;;-6.12;98.50;99753.59;4974465;28;130840;-69
2022/01/02 02:08:32;;;;;;;3.65;2.17;;;-5.60;52.50;;;-6.14;99.36;99745.88;4961165;28;130635;-69
2022/01/02 02:11:21;;;;;;;5.82;2.33;;;-5.60;57.60;;;-6.30;99.96;99736.44;4971034;28;120261;-69
2022/01/02 02:14:09;;;;;;;3.85;1.90;;;-5.60;61.80;;;-6.27;100.00;99741.34;4958510;28;120302;-69
2022/01/02 02:16:58;;;;;;;4.70;2.60;;;-5.60;63.60;;;-6.13;100.00;99730.84;4956137;28;130521;-69
2022/01/02 02:19:49;;;;;;;4.50;2.22;;;-5.60;63.80;;;-6.22;100.00;99728.34;4975862;28;130554;-69
2022/01/02 02:22:41;;;;;;;6.32;2.28;;;-5.60;66.40;;;-6.26;100.00;99721.84;4973382;28;121237;-70
2022/01/02 02:25:31;;;;;;;5.20;2.55;;;-5.70;69.70;;;-6.30;100.00;99731.16;4961281;28;120242;-69
2022/01/02 02:28:19;;;;;;;4.00;2.30;;;-5.70;72.00;;;-6.28;100.00;99734.41;4975265;28;130840;-70
2022/01/02 02:31:11;;;;;;;4.68;2.30;;;-5.80;73.80;;;-6.26;100.00;99740.34;4961492;28;130771;-70
2022/01/02 02:33:58;;;;;;;4.57;2.20;;;-5.90;73.80;;;-6.21;100.00;99739.75;4976249;28;120188;-70
2022/01/02 02:36:45;;;;;;;6.63;2.45;;;-6.00;74.60;;;-6.20;100.00;99747.50;4968977;28;120046;-70
2022/01/02 02:39:36;;;;;;;4.03;2.30;;;-6.10;80.10;;;-6.16;100.00;99756.63;4960151;28;130425;-70
2022/01/02 02:42:33;;;;;;;5.22;2.45;;;-6.00;84.20;;;-6.22;100.00;99765.34;4958842;28;130788;-70
2022/01/02 02:51:51;;;;;;;3.85;2.13;;;-5.90;89.20;;;-6.16;100.00;99756.63;4961221;28;130980;-70
2022/01/02 02:54:47;;;;;;;3.90;2.17;;;-5.90;90.30;;;-6.17;100.00;99744.47;4989358;28;130073;-70
2022/01/02 02:57:35;;;;;;;5.68;2.60;;;-5.90;90.30;;;-6.26;100.00;99756.19;4972847;28;120217;-70
2022/01/02 03:00:22;;;;;;;5.72;2.63;;;-5.90;91.00;;;-6.24;100.00;99762.09;4959832;28;120035;-70
2022/01/02 03:03:10;;;;;;;3.90;2.30;;;-5.80;91.20;;;-6.22;100.00;99781.19;4972986;28;130576;-70
2022/01/02 03:05:57;;;;;;;;;;;-5.90;91.20;;;-6.28;100.00;99781.97;4968472;28;130606;-71
2022/01/02 03:08:46;;;;;;;5.90;2.90;;;-6.00;91.00;;;-6.49;100.00;99774.13;4953303;28;120462;-71
2022/01/02 03:11:35;;;;;;;4.70;2.42;;;-6.00;94.20;;;-6.43;100.00;99768.91;4972969;28;120338;-71
2022/01/02 03:14:23;;;;;;;5.80;2.70;;;-5.90;93.20;;;-6.58;100.00;99755.78;4959491;28;130548;-71
2022/01/02 03:17:10;;;;;;;5.55;2.90;;;-5.90;93.90;;;-6.51;100.00;99761.13;4958767;28;130523;-71
2022/01/02 03:19:58;;;;;;;5.68;2.70;;;-5.90;92.70;;;-6.60;100.00;99757.00;4980732;28;120208;-70
2022/01/02 03:22:45;;;;;;;4.72;2.60;;;-5.90;93.80;;;-6.58;100.00;99766.34;4959683;28;119878;-71
2022/01/02 03:25:35;;;;;;;4.80;2.55;;;-5.90;93.50;;;-6.46;100.00;99764.00;4987853;28;130550;-70
2022/01/02 03:28:24;;;;;;;4.95;3.03;;;-5.90;92.90;;;-6.40;100.00;99757.13;4960350;28;130609;-70
2022/01/02 03:31:11;;;;;;;6.10;3.03;;;-6.10;92.10;;;-6.38;100.00;99755.09;4988275;28;120276;-70
2022/01/02 03:33:59;;;;;;;4.82;2.50;;;-6.20;92.50;;;-6.32;100.00;99751.69;4961455;28;120009;-70
2022/01/02 03:36:46;;;;;;;5.80;2.78;;;-6.20;93.20;;;-6.46;100.00;99742.06;4974966;28;130852;-70
2022/01/02 03:39:36;;;;;;;6.28;3.25;;;-6.10;96.20;;;-6.37;100.00;99743.53;4960171;28;132413;-71
2022/01/02 03:42:24;;;;;;;6.63;3.00;;;-6.10;95.30;;;-6.45;100.00;99749.78;4972161;28;123255;-71
2022/01/02 03:45:13;;;;;;;6.65;3.05;;;-6.20;96.50;;;-6.36;100.00;99742.50;4961142;28;123137;-71
2022/01/02 03:48:00;;;;;;;5.57;2.70;;;-6.20;95.30;;;-6.35;100.00;99739.69;4983930;28;130743;-71
2022/01/02 03:50:48;;;;;;;5.47;2.72;;;-6.30;94.70;;;-6.30;100.00;99746.22;4961177;28;130287;-70
2022/01/02 03:53:37;;;;;;;6.20;3.10;;;-6.50;94.30;;;-6.32;100.00;99749.03;4974776;28;119995;-70
2022/01/02 03:56:24;;;;;;;7.32;3.58;;;-6.60;94.40;;;-6.39;100.00;99750.81;4973729;28;119958;-70
2022/01/02 03:59:12;;;;;;;5.28;3.20;;;-6.60;95.60;;;-6.41;100.00;99755.50;4959648;28;130624;-70
2022/01/02 04:02:01;;;;;;;4.90;2.80;;;-6.60;96.90;;;-6.55;100.00;99760.69;4975804;28;130750;-70
2022/01/02 04:04:48;;;;;;;6.07;3.10;;;-6.60;98.40;;;-6.57;100.00;99762.72;4956797;28;120675;-71
2022/01/02 04:07:37;;;;;;;6.03;2.72;;;-6.50;99.50;;;-6.60;100.00;99763.09;4964390;28;120206;-71
2022/01/02 04:10:24;;;;;;;5.53;3.13;;;-6.50;99.90;;;-6.66;100.00;99755.13;4989765;28;130999;-71
2022/01/02 04:13:11;;;;;;;6.55;3.00;;;-6.40;99.90;;;-6.61;100.00;99765.91;4972187;28;130612;-70
2022/01/02 04:15:59;;;;;;;7.65;3.50;;;-6.40;99.90;;;-6.54;100.00;99759.69;4959282;28;120579;-71
2022/01/02 04:18:50;;;;;;;5.85;2.80;;;-6.40;99.90;;;-6.51;100.00;99759.28;4957835;28;119866;-71
2022/01/02 04:21:37;;;;;;;6.25;3.00;;;-6.50;99.90;;;-6.49;100.00;99759.09;4976159;28;130576;-71
2022/01/02 04:24:24;;;;;;;4.82;2.65;;;-6.40;99.90;;;-6.48;100.00;99759.91;4961432;28;130492;-71
2022/01/02 04:27:12;;;;;;;6.25;3.10;;;-6.40;99.90;;;-6.51;100.00;99756.66;4972462;28;120446;-71
2022/01/02 04:30:00;;;;;;;6.65;3.05;;;-6.40;99.90;;;-6.48;100.00;99763.38;4959200;28;119943;-71
2022/01/02 04:32:48;;;;;;;;;;;-6.30;99.90;;;-6.57;100.00;99756.63;4992443;28;130737;-71
2022/01/02 04:35:36;;;;;;;;;;;-6.30;99.90;;;-6.66;100.00;99763.84;4963654;28;130615;-70
2022/01/02 04:38:24;;;;;;;5.65;3.22;;;-6.40;99.90;;;-6.60;100.00;99755.16;4960781;28;123265;-70
2022/01/02 04:41:11;;;;;;;;;;;-6.50;99.90;;;-6.67;100.00;99751.66;4964401;28;122700;-70
2022/01/02 04:43:59;;;;;;;7.50;3.60;;;-6.50;99.90;;;-6.59;100.00;99754.16;4985874;28;130720;-70
2022/01/02 04:46:47;;;;;;;5.57;3.10;;;-6.50;99.90;;;-6.59;100.00;99748.88;4957279;28;130812;-70
2022/01/02 04:49:34;;;;;;;4.95;2.75;;;-6.40;99.90;;;-6.65;100.00;99765.50;4972141;28;121151;-70
2022/01/02 04:52:23;;;;;;;6.80;3.53;;;-6.40;99.90;;;-6.66;100.00;99763.06;4963688;28;120515;-70
2022/01/02 04:55:11;;;;;;;5.95;2.88;;;-6.40;99.90;;;-6.62;100.00;99754.56;4977008;28;130741;-71
2022/01/02 04:57:58;;;;;;;7.03;3.20;;;-6.40;99.90;;;-6.61;100.00;99753.53;4956587;28;130395;-70
2022/01/02 05:00:47;;;;;;;7.68;3.17;;;-6.40;99.90;;;-6.61;100.00;99750.88;4982388;28;120043;-70
2022/01/02 05:03:34;;;;;;;6.43;3.15;;;-6.40;99.90;;;-6.57;100.00;99746.06;4962421;28;119969;-70
2022/01/02 05:06:21;;;;;;;6.05;3.05;;;-6.30;99.90;;;-6.60;100.00;99746.44;4959081;28;130908;-70
2022/01/02 05:09:11;;;;;;;5.82;3.35;;;-6.30;99.90;;;-6.65;100.00;99744.38;4970893;28;130325;-71
2022/01/02 05:11:59;;;;;;;6.15;3.45;;;-6.30;99.90;;;-6.65;100.00;99744.38;4972039;28;120059;-70
2022/01/02 05:14:47;;;;;;;8.18;4.15;;;-6.30;99.90;;;-6.63;100.00;99737.06;4957161;28;120659;-70
2022/01/02 05:17:34;;;;;;;9.30;4.80;;;-6.40;99.90;;;-6.72;100.00;99732.94;4973150;28;131238;-70
2022/01/02 05:20:22;;;;;;;;;;;-6.30;99.90;;;-6.75;100.00;99733.34;4972853;28;130890;-71
2022/01/02 05:23:09;;;;;;;8.52;4.07;;;-6.40;99.90;;;-6.68;100.00;99728.94;4963010;28;120699;-70
2022/01/02 05:25:58;;;;;;;8.60;4.10;;;-6.60;99.90;;;-6.66;100.00;99721.63;4958690;28;120067;-71
2022/01/02 05:28:45;;;;;;;7.85;4.30;;;-6.70;99.90;;;-6.64;100.00;99709.03;4976624;28;130620;-71
2022/01/02 05:31:33;;;;;;;7.55;3.88;;;-6.80;99.90;;;-6.64;100.00;99714.31;4973707;28;130417;-70
2022/01/02 05:34:20;;;;;;;9.77;5.63;;;-7.00;99.90;;;-6.65;100.00;99702.13;4971270;28;122823;-71
2022/01/02 05:37:09;;;;;;;8.27;5.35;;;-7.10;99.90;;;-6.72;100.00;99680.97;4962768;28;122602;-71
2022/01/02 05:39:58;;;;;;;7.65;4.95;;;-7.20;99.90;;;-6.74;100.00;99671.63;4962978;28;130386;-71
2022/01/02 05:42:47;;;;;;;8.82;5.57;;;-7.20;99.90;;;-6.78;100.00;99665.09;4956367;28;130705;-71
2022/01/02 05:45:35;;;;;;;8.30;4.22;;;-7.30;99.90;;;-6.79;100.00;99676.66;4961129;28;118749;-70
2022/01/02 05:48:22;;;;;;;11.55;4.18;;;-7.40;99.90;;;-6.82;100.00;99677.03;4968050;28;120628;-71
2022/01/02 05:51:09;;;;;;;8.98;4.28;;;-7.50;99.90;;;-6.83;100.00;99688.63;4970475;28;130745;-70
2022/01/02 05:53:58;;;;;;;8.13;4.20;;;-7.40;99.90;;;-6.87;100.00;99683.72;4958202;28;130382;-71
2022/01/02 05:56:45;;;;;;;8.30;3.65;;;-7.40;99.90;;;-6.88;100.00;99682.09;4975921;28;120255;-70
2022/01/02 05:59:35;;;;;;;6.60;3.72;;;-7.20;99.90;;;-6.84;100.00;99694.91;4973438;28;119814;-70
2022/01/02 06:02:23;;;;;;;8.68;3.33;;;-7.00;99.90;;;-6.79;100.00;99695.13;4960432;28;130823;-70
2022/01/02 06:05:10;;;;;;;7.53;4.40;;;-6.90;99.90;;;-6.81;100.00;99705.06;4956393;28;130529;-70
2022/01/02 06:07:58;;;;;;;;;;;-6.70;99.90;;;-6.88;100.00;99692.63;4958250;28;120059;-71
2022/01/02 06:10:45;;;;;;;9.75;3.85;;;-6.70;99.90;;;-6.81;100.00;99689.22;4976456;28;120269;-70
2022/01/02 06:13:33;;;;;;;7.65;3.63;;;-6.70;99.90;;;-6.83;100.00;99678.88;4972972;28;131212;-70
2022/01/02 06:16:22;;;;;;;7.55;3.80;;;-6.70;99.90;;;-6.76;100.00;99673.63;4960647;28;130393;-70
2022/01/02 06:19:10;;;;;;;7.90;4.10;;;-6.70;99.90;;;-6.76;100.00;99676.25;4975160;28;120599;-70
2022/01/02 06:21:57;;;;;;;7.82;3.95;;;-6.70;99.90;;;-6.73;100.00;99668.78;4959055;28;120708;-70
2022/01/02 06:24:45;;;;;;;7.57;3.65;;;-6.70;99.90;;;-6.65;100.00;99665.19;4953870;28;130534;-71
2022/01/02 06:27:34;;;;;;;8.38;3.80;;;-6.70;99.90;;;-6.62;100.00;99664.78;4961303;28;130493;-71
2022/01/02 06:30:21;;;;;;;6.97;3.65;;;-6.80;99.90;;;-6.55;100.00;99673.53;4961458;28;122836;-71
2022/01/02 06:33:13;;;;;;;7.25;3.92;;;-6.80;99.90;;;-6.45;100.00;99670.56;4962138;28;122584;-72
2022/01/02 06:36:00;;;;;;;7.43;4.20;;;-6.80;99.90;;;-6.37;100.00;99659.03;4956799;28;130826;-72
2022/01/02 06:38:49;;;;;;;7.15;3.95;;;-6.70;99.90;;;-6.21;100.00;99655.22;4959002;28;130214;-72
2022/01/02 06:41:37;;;;;;;8.15;4.35;;;-6.70;99.90;;;-6.05;100.00;99659.31;4975360;28;119753;-72
2022/01/02 06:44:26;;;;;;;;;;;-6.60;99.90;;;-5.99;100.00;99654.06;4961873;28;120412;-72
2022/01/02 06:47:13;;;;;;;8.35;4.15;;;-6.40;99.90;;;-5.74;100.00;99660.59;4983154;28;130647;-71
2022/01/02 06:50:02;;;;;;;7.80;4.00;;;-6.20;99.90;;;-5.60;100.00;99646.38;4961308;28;131193;-71
2022/01/02 06:52:51;;;;;;;9.23;5.55;;;-6.00;99.90;;;-5.47;100.00;99638.47;4961047;28;120702;-71
2022/01/02 06:55:38;;;;;;;6.82;4.03;;;-5.80;99.90;;;-5.10;99.64;99633.53;4973692;28;119775;-71
2022/01/02 06:58:26;;;;;;;9.80;6.70;;;-5.60;99.90;;;-4.95;98.81;99638.63;4970024;28;130621;-71
2022/01/02 07:01:13;;;;;;;8.23;4.53;;;-5.40;99.90;;;-4.68;98.17;99624.50;4958810;28;130333;-72
2022/01/02 07:04:00;;;;;;;8.82;4.72;;;-5.30;99.90;;;-4.49;97.75;99634.22;4957801;28;120635;-71
2022/01/02 07:06:49;;;;;;;8.25;4.50;;;-5.20;99.90;;;-4.44;96.41;99621.16;4962258;28;120680;-72
2022/01/02 07:09:39;;;;;;;11.00;5.10;;;-5.10;99.90;;;-4.34;96.03;99621.50;4974195;28;130318;-70
2022/01/02 07:12:26;;;;;;;6.65;3.72;;;-5.00;99.90;;;-4.34;94.88;99618.88;4958301;28;130425;-70
2022/01/02 07:15:13;;;;;;;8.07;3.53;;;-5.00;99.90;;;-4.32;94.64;99637.19;4960855;28;122026;-71
2022/01/02 07:18:01;;;;;;;;;;;-5.00;99.90;;;-4.49;93.67;99642.16;4963084;28;120113;-70
2022/01/02 07:20:48;;;;;;;7.95;3.92;;;-5.00;99.90;;;-4.46;94.48;99644.38;4954239;28;130999;-70
2022/01/02 07:23:36;;;;;;;7.90;4.22;;;-5.00;99.90;;;-4.31;94.50;99633.53;4958478;28;130576;-70
2022/01/02 07:26:23;;;;;;;6.15;3.55;;;-4.90;99.90;;;-4.21;94.02;99638.38;4960095;28;123004;-70
2022/01/02 07:29:11;;;;;;;7.90;4.10;;;-4.80;99.90;;;-4.21;93.33;99646.34;4959251;28;122454;-70
2022/01/02 07:31:58;;;;;;;;;;;-4.80;99.90;;;-4.26;93.26;99646.16;4960998;28;130407;-71
2022/01/02 07:34:46;;;;;;;6.35;3.40;;;-4.70;99.60;;;-4.12;92.74;99653.03;4953581;28;130546;-72
2022/01/02 07:37:33;;;;;;;7.85;3.83;;;-4.60;98.00;;;-4.20;92.08;99650.63;4963599;28;120262;-74
2022/01/02 07:40:21;;;;;;;6.97;3.83;;;-4.60;94.20;;;-4.11;91.83;99657.31;4965888;28;120223;-73
2022/01/02 07:43:08;;;;;;;7.32;3.85;;;-4.60;91.20;;;-3.95;91.66;99657.84;4965703;28;130630;-71
2022/01/02 07:45:56;;;;;;;6.35;3.28;;;-4.50;90.70;;;-3.80;92.18;99645.13;4963069;28;130429;-71
2022/01/02 07:48:43;;;;;;;7.28;3.70;;;-4.30;90.10;;;-3.69;91.06;99644.41;4962710;28;120636;-71
2022/01/02 07:51:31;;;;;;;6.68;3.60;;;-4.30;87.10;;;-3.61;90.98;99638.03;4962395;28;119879;-72
2022/01/02 07:54:18;;;;;;;;;;;-4.20;84.20;;;-3.64;90.44;99628.66;4962403;28;130505;-72
2022/01/02 07:57:07;;;;;;;6.32;3.53;;;-4.10;81.50;;;-3.50;90.54;99623.28;4960527;28;131207;-72
2022/01/02 07:59:54;;;;;;;8.70;3.25;;;-4.00;78.50;;;-3.40;90.26;99628.88;4960205;28;120298;-72
2022/01/02 08:02:41;;;;;;;6.60;3.75;;;-4.00;76.20;;;-3.39;89.27;99625.22;4963006;28;119981;-72
2022/01/02 08:05:31;;;;;;;8.32;5.05;;;-4.00;68.70;;;-3.28;89.32;99605.13;4961754;28;130549;-72
2022/01/02 08:08:21;;;;;;;7.18;3.70;;;-3.90;68.40;;;-3.13;88.93;99608.25;4960478;28;130252;-72
2022/01/02 08:11:09;;;;;;;6.00;3.45;;;-3.80;68.60;;;-2.96;88.44;99605.84;4968807;28;120123;-72
2022/01/02 08:13:58;;;;;;;7.85;3.95;;;-3.70;68.40;;;-2.87;87.68;99611.66;4963358;28;120234;-72
2022/01/02 08:16:45;;;;;;;7.07;3.58;;;-3.60;66.90;;;-2.83;86.82;99601.44;4962288;28;130460;-72
2022/01/02 08:19:33;;;;;;;7.18;3.95;;;-3.60;61.90;;;-2.97;86.11;99596.25;4962018;28;131596;-72
2022/01/02 08:22:20;;;;;;;7.68;3.72;;;-3.60;53.40;;;-2.83;86.09;99590.81;4960522;28;122923;-71
2022/01/02 08:25:09;;;;;;;8.95;4.03;;;-3.60;52.30;;;-2.77;85.67;99596.03;4962471;28;122582;-72
2022/01/02 08:27:57;;;;;;;6.63;3.92;;;-3.50;50.90;;;-2.63;85.66;99607.31;4961656;28;130426;-71
2022/01/02 08:30:47;;;;;;;9.95;5.28;;;-3.40;50.70;;;-2.53;85.09;99607.59;4964685;28;130868;-72
2022/01/02 08:33:34;;;;;;;10.90;4.82;;;-3.30;50.50;;;-2.49;83.96;99601.84;4962204;28;122188;-71
2022/01/02 08:36:21;;;;;;;11.77;5.00;;;-3.30;46.00;;;-2.54;83.85;99599.84;4962669;28;120146;-72
2022/01/02 08:39:08;;;;;;;9.88;5.07;;;-3.30;42.20;;;-2.57;83.75;99595.81;4964741;28;130443;-72
2022/01/02 08:41:55;;;;;;;10.48;5.28;;;-3.30;39.40;;;-2.42;83.83;99586.63;4962857;28;131109;-72
2022/01/02 08:44:43;;;;;;;9.48;5.10;;;-3.20;40.40;;;-2.39;83.28;99589.66;4953624;28;120398;-72
2022/01/02 08:47:32;;;;;;;12.07;5.63;;;-3.20;37.70;;;-2.49;82.38;99580.56;4957579;28;120110;-71
2022/01/02 08:50:19;;;;;;;10.13;5.22;;;-3.20;33.50;;;-2.44;82.73;99576.22;4959934;28;130581;-72
2022/01/02 08:53:07;;;;;;;10.32;5.28;;;-3.20;35.80;;;-2.49;82.74;99576.09;4956968;28;131459;-72
2022/01/02 08:55:55;;;;;;;9.18;5.22;;;-3.20;34.80;;;-2.37;82.67;99581.44;4951646;28;120110;-71
2022/01/02 08:58:42;;;;;;;;;;;-3.10;36.80;;;-2.54;81.65;99582.06;4977733;28;120104;-72
2022/01/02 09:01:29;;;;;;;8.52;4.43;;;-3.10;35.70;;;-2.30;82.60;99574.22;4954946;28;131290;-71
2022/01/02 09:04:18;;;;;;;7.13;3.90;;;-3.00;37.10;;;-2.22;82.41;99560.59;4954539;28;130583;-72
2022/01/02 09:07:06;;;;;;;6.90;3.85;;;-3.00;37.50;;;-2.27;81.02;99557.81;4955910;28;120303;-72
2022/01/02 09:09:53;;;;;;;10.10;4.88;;;-3.00;31.60;;;-2.19;79.50;99554.81;4954596;28;119857;-73
2022/01/02 09:12:41;;;;;;;5.05;3.03;;;-2.90;28.70;;;-2.21;78.25;99545.47;4960613;28;130797;-72
2022/01/02 09:15:29;;;;;;;5.75;2.97;;;-2.90;24.60;;;-2.12;76.83;99538.78;4959647;28;130292;-72
2022/01/02 09:18:16;;;;;;;6.55;3.22;;;-2.90;22.00;;;-2.22;75.61;99539.31;4957468;28;122660;-72
2022/01/02 09:21:05;;;;;;;;;;;-2.90;16.30;;;-2.26;74.81;99532.03;4957469;28;123070;-72
2022/01/02 09:23:52;;;;;;;7.38;3.38;;;-2.90;15.90;;;-2.15;74.60;99517.16;4959586;28;130891;-71
2022/01/02 09:26:39;;;;;;;7.70;3.45;;;-2.80;14.30;;;-2.04;74.28;99519.84;4957253;28;130220;-72
2022/01/02 09:29:26;;;;;;;6.15;3.17;;;-2.80;16.60;;;-2.04;73.53;99498.56;4959798;28;120649;-72
2022/01/02 09:32:13;;;;;;;7.25;3.50;;;-2.70;12.20;;;-2.18;72.18;99497.97;4960222;28;120412;-72
2022/01/02 09:35:01;;;;;;;8.88;3.40;;;-2.80;5.50;;;-2.06;70.21;99494.50;4956311;28;130592;-69
2022/01/02 09:37:50;;;;;;;7.63;3.45;;;-2.80;2.80;;;-1.94;70.30;99490.00;4958252;28;130644;-71
2022/01/02 09:40:37;;;;;;;6.40;3.17;;;-2.70;4.30;;;-2.05;68.13;99480.97;4962050;28;120133;-72
2022/01/02 09:43:26;;;;;;;6.05;3.13;;;-2.70;1.10;;;-1.97;67.62;99482.50;4962722;28;119939;-71
2022/01/02 09:46:13;;;;;;;6.18;2.92;;;-2.70;1.00;;;-1.92;67.09;99479.94;4962427;28;130572;-71
2022/01/02 09:49:02;;;;;;;5.40;2.90;;;-2.60;1.00;;;-2.04;68.31;99481.78;4957140;28;131395;-71
2022/01/02 09:51:50;;;;;;;7.93;2.97;;;-2.60;1.00;;;-2.03;67.92;99483.41;4955570;28;120597;-71
2022/01/02 09:54:38;;;;;;;6.47;2.95;;;-2.60;1.00;;;-1.92;68.17;99485.28;4960530;28;120296;-72
2022/01/02 09:57:07;;;;;;;5.75;3.05;;;-2.50;1.00;;;-1.91;68.75;99475.47;4960223;28;129790;-72
2022/01/02 09:59:36;;;;;;;6.93;3.35;;;-2.50;1.00;;;-1.98;68.14;99464.91;4959251;28;129560;-72
2022/01/02 10:02:05;;;;;;;6.68;3.17;;;-2.50;1.00;;;-1.94;68.16;99450.13;4962432;28;120228;-72
2022/01/02 10:04:36;;;;;;;6.18;3.05;;;-2.40;1.00;;;-1.90;66.50;99445.97;4960246;28;119103;-72
2022/01/02 10:07:06;;;;;;;9.20;5.47;;;-2.40;1.00;;;-1.96;67.15;99436.25;4963837;28;130153;-72
2022/01/02 10:09:39;;;;;;;7.40;3.20;;;-2.40;1.00;;;-1.78;66.72;99432.66;4961920;28;128842;-72
2022/01/02 10:12:27;;;;;;;7.80;3.20;;;-2.30;1.00;;;-1.64;66.06;99427.91;4959134;28;122692;-72
2022/01/02 10:15:11;;;;;;;;;;;-2.30;1.00;;;-1.73;66.42;99418.66;4956713;28;121840;-72
2022/01/02 10:17:59;;;;;;;4.63;2.38;;;-2.40;1.00;;;-1.70;65.10;99412.88;4958886;28;129709;-73
2022/01/02 10:20:31;;;;;;;5.78;3.00;;;-2.20;1.00;;;-1.81;65.92;99404.69;4960567;28;129975;-73
2022/01/02 10:23:06;;;;;;;5.35;2.92;;;-2.20;1.00;;;-1.55;65.91;99383.91;4962704;28;119716;-72
2022/01/02 10:25:55;;;;;;;7.00;2.72;;;-2.20;1.00;;;-1.40;65.25;99379.94;4960343;28;119853;-73
2022/01/02 10:28:36;;;;;;;5.68;2.80;;;-2.10;1.00;;;-1.54;63.42;99374.91;4959944;28;130711;-73
2022/01/02 10:31:09;;;;;;;5.47;2.80;;;-2.00;1.00;;;-1.33;63.72;99357.47;4960189;28;129626;-73
2022/01/02 10:33:52;;;;;;;5.28;2.85;;;-2.00;1.00;;;-1.33;62.94;99354.81;4979071;28;119328;-72
2022/01/02 10:36:29;;;;;;;5.47;2.90;;;-1.90;1.00;;;-1.02;61.25;99341.28;4959995;28;119872;-73
2022/01/02 10:39:12;;;;;;;3.83;1.90;;;-1.80;1.00;;;-1.19;59.66;99338.56;4960190;28;129674;-71
2022/01/02 10:41:45;;;;;;;4.13;2.35;;;-1.80;1.00;;;-1.12;61.48;99332.03;4961662;28;129344;-71
2022/01/02 10:44:29;;;;;;;4.03;2.30;;;-1.70;1.00;;;-1.19;59.50;99334.03;4961392;28;119226;-72
2022/01/02 10:47:11;;;;;;;7.25;2.67;;;-1.70;1.00;;;-1.09;58.65;99323.56;4955023;28;120047;-72
2022/01/02 10:49:58;;;;;;;4.85;2.15;;;-1.80;1.00;;;-0.96;59.13;99322.47;4959461;28;131212;-72
2022/01/02 10:52:30;;;;;;;4.35;2.30;;;-1.70;1.00;;;-1.05;59.85;99323.09;4959578;28;129670;-72
2022/01/02 10:55:00;;;;;;;5.30;2.30;;;-1.70;1.00;;;-1.36;58.77;99322.53;4959730;28;119593;-72
2022/01/02 10:57:30;;;;;;;6.20;2.45;;;-1.70;1.00;;;-1.11;58.45;99315.03;4974642;28;118432;-72
2022/01/02 11:00:00;;;;;;;7.85;2.30;;;-1.70;1.00;;;-1.14;56.71;99301.38;4959722;28;129998;-72
2022/01/02 11:02:29;;;;;;;4.10;2.20;;;-1.70;1.00;;;-1.14;57.64;99304.84;4959449;28;130375;-72
2022/01/02 11:05:01;;;;;;;4.85;2.85;;;-1.70;1.00;;;-1.04;58.28;99292.72;4964506;28;120807;-72
2022/01/02 11:07:39;;;;;;;4.97;2.10;;;-1.70;1.00;;;-0.95;56.66;99281.47;4959239;28;121732;-72
2022/01/02 11:10:10;;;;;;;5.68;2.30;;;-1.60;1.00;;;-0.96;58.23;99281.72;4959646;28;130024;-71
2022/01/02 11:12:43;;;;;;;4.65;2.50;;;-1.60;1.00;;;-0.91;56.73;99273.78;4959444;28;130065;-72
2022/01/02 11:15:15;;;;;;;4.72;2.33;;;-1.60;1.00;;;-0.84;56.22;99261.13;4960941;28;119272;-72
2022/01/02 11:17:44;;;;;;;4.30;2.35;;;-1.60;1.00;;;-0.85;57.49;99254.19;4976981;28;118898;-71
2022/01/02 11:20:16;;;;;;;5.88;2.63;;;-1.60;1.00;;;-0.98;57.43;99252.66;4959134;28;129680;-72
2022/01/02 11:22:52;;;;;;;5.00;2.53;;;-1.70;1.00;;;-1.23;58.83;99253.03;4980348;28;130460;-71
2022/01/02 11:25:30;;;;;;;7.00;2.70;;;-1.80;1.00;;;-1.34;59.92;99254.69;4959444;28;119503;-72
2022/01/02 11:28:04;;;;;;;5.47;2.70;;;-1.80;1.00;;;-1.37;60.23;99252.50;4960115;28;120289;-72
2022/01/02 11:30:41;;;;;;;6.50;2.58;;;-1.80;1.00;;;-1.39;59.54;99243.94;4959633;28;129920;-72
2022/01/02 11:33:14;;;;;;;5.97;2.47;;;-1.80;1.00;;;-1.47;59.82;99231.81;4959231;28;129699;-72
2022/01/02 11:35:48;;;;;;;7.00;2.40;;;-1.90;1.00;;;-1.25;60.04;99228.47;4959636;28;118939;-71
2022/01/02 11:38:19;;;;;;;4.65;2.35;;;-1.90;1.00;;;-1.26;60.43;99216.22;4959322;28;119421;-73
2022/01/02 11:41:01;;;;;;;4.80;2.45;;;-1.80;1.00;;;-1.33;59.70;99207.56;4962672;28;130339;-73